Terminal Aerodrome Forecast
Issued by NWS

Home | Current Version | Previous Version | Text Only | Print | Product List | Glossary On
Versions: 1 2 3 4 5 6 7 8 9 10 11 12 13
281
FTUS45 KPSR 231738
TAFBLH
TAF
KBLH 231738Z 2318/2418 08009KT P6SM SKC
     FM232100 35009KT P6SM SKC
      TEMPO 2321/2324 36010G20KT
     FM240000 35005KT P6SM SKC
     FM240500 VRB03KT P6SM SKC=

USA.gov is the U.S. government's official web portal to all federal, state and local government web resources and services.